EGBB/BHX METAR and TAF weather

Enter ICAO airport designator
Station Type Date Time Source
EGBB METAR 2021/09/27 06:20 UTC NOAA

EGBB 270620Z 15017KT 4800 RA BKN009 16/16 Q0998 RERA


Station Type Date Time Source
EGBB Decoded METAR 2021/09/27 06:20 UTC NOAA

Birmingham / Airport, United Kingdom (EGBB) 52-27N 001-44W 0M
Sep 27, 2021 - 02:20 AM EDT / 2021.09.27 0620 UTC
Wind: from the SSE (150 degrees) at 20 MPH (17 KT):0
Visibility: 2 mile(s):0
Sky conditions: mostly cloudy
Weather: rain
Temperature: 60 F (16 C)
Dew Point: 60 F (16 C)
Relative Humidity: 100%
Pressure (altimeter): 29.47 in. Hg (0998 hPa)
ob: EGBB 270620Z 15017KT 4800 RA BKN009 16/16 Q0998 RERA
cycle: 6

Station Type Date Time Source
EGBB TAF 2021/09/27 06:09 UTC NOAA

TAF EGBB 270502Z 2706/2806 17015G25KT 6000 RA SCT015
BECMG 2706/2708 26012KT 9999 NSW
TEMPO 2706/2708 18018G35KT 1400 +RA BKN012 PROB30
TEMPO 2706/2708 BKN008 PROB30
TEMPO 2709/2711 6000 SHRA PROB30
TEMPO 2711/2719 26015G25KT 4000 +SHRA
BECMG 2717/2720 20007KT

Example: see airport list